Flight Track Log - Related Links

Times and Time Zones

All times are in EDT time to prevent confusion due to time zone crossing. See the UAL1177 flight status page for this flight to view local times or setup timezone preferences in your user account.

Time Position Orientation Groundspeed Altitude Reporting Facility
EDT Latitude Longitude Course Direction KTS MPH feet Rate Location/Type
Fri 01:53:01 PM 40.7260 -74.1230 41° Northeast 210 242 2,200  Level FlightAware ADS-B
Fri 01:53:24 PM 40.7417 -74.1011 47° Northeast 213 245 3,200 2,538 Climbing FlightAware ADS-B
Fri 01:53:27 PM 40.7445 -74.0996 22° Northeast 212 244 3,300 2,250 Climbing FlightAware ADS-B
Fri 01:53:32 PM 40.7491 -74.0981 14° North 212 244 3,500 2,667 Climbing FlightAware ADS-B
Fri 01:53:36 PM 40.7527 -74.0976 North 214 246 3,700 2,000 Climbing FlightAware ADS-B
Fri 01:53:41 PM 40.7576 -74.0980 356° North 220 253 3,800 1,000 Climbing FlightAware ADS-B
Fri 01:53:48 PM 40.7656 -74.1010 344° North 227 261 3,900 1,091 Climbing FlightAware ADS-B
Fri 01:53:52 PM 40.7695 -74.1039 331° Northwest 239 275 4,000 1,500 Climbing FlightAware ADS-B
Fri 01:53:56 PM 40.7731 -74.1075 323° Northwest 245 282 4,100 1,800 Climbing FlightAware ADS-B
Fri 01:54:02 PM 40.7771 -74.1133 312° West 250 288 4,300 2,000 Climbing FlightAware ADS-B
Fri 01:54:05 PM 40.7792 -74.1171 306° West 254 292 4,400 2,571 Climbing FlightAware ADS-B
Fri 01:54:16 PM 40.7845 -74.1341 292° West 262 302 4,900 2,250 Climbing FlightAware ADS-B
Fri 01:54:21 PM 40.7852 -74.1409 278° West 261 300 5,000 1,059 Climbing FlightAware ADS-B
Fri 01:54:50 PM 40.7793 -74.1870 260° West 260 299 5,500 2,032 Climbing FlightAware ADS-B
Fri 01:55:23 PM 40.7711 -74.2379 258° West 263 303 7,100 3,000 Climbing FlightAware ADS-B
Fri 01:55:40 PM 40.7670 -74.2651 259° West 267 307 8,000 3,333 Climbing FlightAware ADS-B
Fri 01:55:50 PM 40.7645 -74.2824 259° West 269 310 8,600 3,158 Climbing FlightAware ADS-B
Fri 01:55:59 PM 40.7635 -74.2967 265° West 271 312 9,000 2,769 Climbing FlightAware ADS-B
Fri 01:56:03 PM 40.7640 -74.3032 276° West 274 315 9,200 2,250 Climbing FlightAware ADS-B
Fri 01:56:07 PM 40.7651 -74.3094 283° West 278 320 9,300 2,571 Climbing FlightAware ADS-B
Fri 01:56:17 PM 40.7708 -74.3248 296° West 285 328 9,800 3,000 Climbing FlightAware ADS-B
Fri 01:56:25 PM 40.7776 -74.3361 308° West 291 335 10,200 1,737 Climbing FlightAware ADS-B
Fri 01:56:55 PM 40.8055 -74.3784 311° West 319 367 10,900 1,800 Climbing FlightAware ADS-B
Fri 01:57:25 PM 40.8355 -74.4244 311° West 336 387 12,000 2,170 Climbing FlightAware ADS-B
Fri 01:57:42 PM 40.8530 -74.4515 310° West 329 379 12,600 2,250 Climbing FlightAware ADS-B
Fri 01:57:57 PM 40.8687 -74.4758 311° West 348 400 13,200 2,625 Climbing FlightAware ADS-B
Fri 01:58:30 PM 40.9028 -74.5288 310° West 352 405 14,700 2,509 Climbing FlightAware ADS-B
Fri 01:58:52 PM 40.9267 -74.5646 311° West 358 412 15,500 1,889 Climbing FlightAware ADS-B
Fri 01:59:24 PM 40.9633 -74.6167 313° West 372 428 16,400 1,714 Climbing FlightAware ADS-B
Fri 01:59:34 PM 40.9753 -74.6334 314° West 376 433 16,700 2,000 Climbing FlightAware ADS-B
Fri 01:59:42 PM 40.9845 -74.6471 312° West 380 437 17,000 1,600 Climbing FlightAware ADS-B
Fri 01:59:49 PM 40.9915 -74.6613 303° West 375 432 17,100 429 Climbing FlightAware ADS-B
Fri 01:59:56 PM 40.9962 -74.6760 293° West 368 423 17,100  Level FlightAware ADS-B
Fri 02:00:10 PM 40.9986 -74.7061 276° West 350 403 17,100  Level FlightAware ADS-B
Fri 02:00:18 PM 40.9959 -74.7224 258° West 339 390 17,100  Level FlightAware ADS-B
Fri 02:00:25 PM 40.9924 -74.7349 250° West 335 386 17,100  Level FlightAware ADS-B
Fri 02:00:36 PM 40.9866 -74.7565 250° West 336 387 17,100  Level FlightAware ADS-B
Fri 02:01:06 PM 40.9743 -74.8159 255° West 338 389 17,100  Level FlightAware ADS-B
Fri 02:01:36 PM 40.9644 -74.8771 258° West 339 390 17,100  Level FlightAware ADS-B
Fri 02:02:08 PM 40.9541 -74.9417 258° West 344 396 17,100 -95 Level FlightAware ADS-B
Fri 02:02:39 PM 40.9436 -75.0055 258° West 345 397 17,000 563 Descending FlightAware ADS-B
Fri 02:03:12 PM 40.9319 -75.0743 257° West 351 404 17,700 1,714 Climbing FlightAware ADS-B
Fri 02:03:42 PM 40.9211 -75.1368 257° West 355 409 18,800 2,125 Climbing FlightAware ADS-B
Fri 02:04:00 PM 40.9143 -75.1744 257° West 357 411 19,400 2,125 Climbing FlightAware ADS-B
Fri 02:04:30 PM 40.9012 -75.2393 255° West 364 419 20,500 2,164 Climbing FlightAware ADS-B
Fri 02:05:01 PM 40.8876 -75.3054 255° West 371 427 21,600 2,361 Climbing FlightAware ADS-B
Fri 02:05:31 PM 40.8740 -75.3718 255° West 368 423 22,900 2,625 Climbing FlightAware ADS-B
Fri 02:05:49 PM 40.8659 -75.4098 254° West 362 417 23,700 2,500 Climbing FlightAware ADS-B
Fri 02:06:19 PM 40.8507 -75.4737 253° West 360 414 24,900 1,672 Climbing FlightAware ADS-B
Fri 02:06:50 PM 40.8354 -75.5380 253° West 372 428 25,400 787 Climbing FlightAware ADS-B
Fri 02:07:20 PM 40.8195 -75.6047 253° West 389 448 25,700 923 Climbing FlightAware ADS-B
Fri 02:07:55 PM 40.8002 -75.6861 253° West 399 459 26,400 1,273 Climbing FlightAware ADS-B
Fri 02:08:26 PM 40.7833 -75.7574 253° West 403 464 27,100 1,429 Climbing FlightAware ADS-B
Fri 02:08:58 PM 40.7648 -75.8349 253° West 408 470 27,900 1,313 Climbing FlightAware ADS-B
Fri 02:09:30 PM 40.7465 -75.9105 252° West 411 473 28,500 1,161 Climbing FlightAware ADS-B
Fri 02:10:00 PM 40.7290 -75.9827 252° West 416 479 29,100 1,250 Climbing FlightAware ADS-B
Fri 02:10:18 PM 40.7184 -76.0261 252° West 416 479 29,500 1,500 Climbing FlightAware ADS-B
Fri 02:10:48 PM 40.6984 -76.0970 250° West 413 475 30,300 1,182 Climbing FlightAware ADS-B
Fri 02:11:24 PM 40.6748 -76.1802 250° West 419 482 30,800 553 Climbing FlightAware ADS-B
Fri 02:12:04 PM 40.6470 -76.2785 250° West 435 501 31,000 514 Climbing FlightAware ADS-B
Fri 02:12:34 PM 40.6256 -76.3547 250° West 443 510 31,400 1,254 Climbing FlightAware ADS-B
Fri 02:13:11 PM 40.5999 -76.4469 250° West 438 504 32,400 1,913 Climbing FlightAware ADS-B
Fri 02:13:43 PM 40.5778 -76.5257 250° West 421 484 33,600 2,175 Climbing FlightAware ADS-B
Fri 02:14:31 PM 40.5460 -76.6364 249° West 395 455 35,300 1,655 Climbing FlightAware ADS-B
Fri 02:15:10 PM 40.5214 -76.7216 249° West 388 447 36,000 600 Climbing FlightAware ADS-B
Fri 02:15:41 PM 40.5022 -76.7893 250° West 389 448 36,000  Level FlightAware ADS-B
Fri 02:16:13 PM 40.4820 -76.8602 249° West 390 449 36,000  Level FlightAware ADS-B
Fri 02:16:43 PM 40.4628 -76.9268 249° West 392 451 36,000  Level FlightAware ADS-B
Fri 02:17:13 PM 40.4450 -76.9880 249° West 392 451 36,000  Level FlightAware ADS-B
Fri 02:17:54 PM 40.4170 -77.0860 249° West 394 453 36,000  Level FlightAware ADS-B
Fri 02:18:35 PM 40.3920 -77.1710 249° West 395 455 36,000  Level FlightAware ADS-B
Fri 02:19:15 PM 40.3650 -77.2640 249° West 398 458 36,000  Level FlightAware ADS-B
Fri 02:20:00 PM 40.3350 -77.3650 249° West 400 460 36,000  Level FlightAware ADS-B
Fri 02:20:40 PM 40.3080 -77.4590 249° West 404 465 36,000  Level FlightAware ADS-B
Fri 02:21:25 PM 40.2800 -77.5540 249° West 407 468 36,000  Level FlightAware ADS-B
Fri 02:22:05 PM 40.2530 -77.6460 249° West 409 471 36,000  Level FlightAware ADS-B
Fri 02:22:48 PM 40.2230 -77.7440 248° West 411 473 36,000  Level FlightAware ADS-B
Fri 02:23:29 PM 40.1940 -77.8420 249° West 413 475 36,000  Level FlightAware ADS-B
Fri 02:24:10 PM 40.1720 -77.9170 249° West 414 476 36,000  Level FlightAware ADS-B
Fri 02:24:47 PM 40.1377 -78.0304 248° West 416 479 36,000  Level FlightAware ADS-B
Fri 02:25:27 PM 40.1101 -78.1220 249° West 416 479 36,000  Level FlightAware ADS-B
Fri 02:25:59 PM 40.0870 -78.1985 248° West 416 479 36,000  Level FlightAware ADS-B
Fri 02:27:03 PM 40.0420 -78.3460 248° West 418 481 36,000  Level FlightAware ADS-B
Fri 02:27:43 PM 40.0140 -78.4390 249° West 420 483 36,000  Level FlightAware ADS-B
Fri 02:28:19 PM 39.9870 -78.5250 248° West 422 486 36,000  Level FlightAware ADS-B
Fri 02:29:09 PM 39.9510 -78.6440 248° West 422 486 36,000  Level FlightAware ADS-B
Fri 02:29:47 PM 39.9240 -78.7320 248° West 423 487 36,000  Level FlightAware ADS-B
Fri 02:30:32 PM 39.8990 -78.8130 248° West 422 486 36,000  Level FlightAware ADS-B
Fri 02:31:13 PM 39.8610 -78.9350 248° West 421 484 36,000  Level FlightAware ADS-B
Fri 02:31:57 PM 39.8290 -79.0370 248° West 421 484 36,000  Level FlightAware ADS-B
Fri 02:32:37 PM 39.8000 -79.1310 248° West 421 484 36,000  Level FlightAware ADS-B
Fri 02:33:17 PM 39.7700 -79.2250 247° West 421 484 36,000  Level FlightAware ADS-B
Fri 02:34:01 PM 39.7380 -79.3290 248° West 420 483 36,000  Level FlightAware ADS-B
Fri 02:34:43 PM 39.7070 -79.4260 247° West 418 481 36,000  Level FlightAware ADS-B
Fri 02:35:27 PM 39.6750 -79.5270 248° West 420 483 36,000  Level FlightAware ADS-B
Fri 02:36:07 PM 39.6450 -79.6200 247° West 421 484 36,000  Level FlightAware ADS-B
Fri 02:36:49 PM 39.6140 -79.7190 248° West 425 489 36,000  Level FlightAware ADS-B
Fri 02:37:33 PM 39.5800 -79.8240 247° West 433 498 36,000  Level FlightAware ADS-B
Fri 02:38:13 PM 39.5490 -79.9190 247° West 437 503 36,000  Level FlightAware ADS-B
Fri 02:38:55 PM 39.5160 -80.0220 247° West 438 504 36,000  Level FlightAware ADS-B
Fri 02:39:39 PM 39.4820 -80.1280 247° West 439 505 36,000  Level FlightAware ADS-B
Fri 02:40:21 PM 39.4500 -80.2270 247° West 441 507 36,000  Level FlightAware ADS-B
Fri 02:42:07 PM 39.3650 -80.4860 247° West 444 511 36,000  Level FlightAware ADS-B
Fri 02:42:51 PM 39.3310 -80.5910 247° West 444 511 36,000  Level FlightAware ADS-B
Fri 02:43:37 PM 39.2920 -80.7070 247° West 445 512 36,000  Level FlightAware ADS-B
Fri 02:44:17 PM 39.2600 -80.8040 247° West 445 512 36,000  Level FlightAware ADS-B
Fri 02:45:01 PM 39.2240 -80.9120 247° West 446 513 36,000  Level FlightAware ADS-B
Fri 02:45:39 PM 39.1930 -81.0040 247° West 446 513 36,000  Level FlightAware ADS-B
Fri 02:46:19 PM 39.1610 -81.1010 247° West 447 514 36,000  Level FlightAware ADS-B
Fri 02:47:03 PM 39.1240 -81.2090 246° West 446 513 36,000  Level FlightAware ADS-B
Fri 02:47:43 PM 39.0920 -81.3040 247° West 433 498 36,000  Level FlightAware ADS-B
Fri 02:48:25 PM 39.0590 -81.4040 247° West 429 494 36,000  Level FlightAware ADS-B
Fri 02:49:07 PM 39.0260 -81.5010 246° West 427 491 36,000  Level FlightAware ADS-B
Fri 02:49:49 PM 38.9920 -81.5980 246° West 426 490 36,000  Level FlightAware ADS-B
Fri 02:50:27 PM 38.9630 -81.6820 246° West 427 491 36,000  Level FlightAware ADS-B
Fri 02:51:13 PM 38.9250 -81.7920 246° West 432 497 36,000  Level FlightAware ADS-B
Fri 02:51:55 PM 38.8910 -81.8920 246° West 433 498 36,000  Level FlightAware ADS-B
Fri 02:52:36 PM 38.8580 -81.9870 246° West 433 498 36,000  Level FlightAware ADS-B
Fri 02:53:17 PM 38.8240 -82.0850 246° West 431 496 36,000  Level FlightAware ADS-B
Fri 02:54:03 PM 38.7880 -82.1900 246° West 431 496 36,000  Level FlightAware ADS-B
Fri 02:54:43 PM 38.7550 -82.2840 246° West 431 496 36,000  Level FlightAware ADS-B
Fri 02:55:23 PM 38.7230 -82.3760 246° West 431 496 36,000  Level FlightAware ADS-B
Fri 02:56:48 PM 38.6550 -82.5650 245° Southwest 432 497 36,000  Level FlightAware ADS-B
Fri 02:57:29 PM 38.6200 -82.6670 246° West 433 498 36,000  Level FlightAware ADS-B
Fri 02:58:07 PM 38.5880 -82.7570 246° West 435 501 36,000  Level FlightAware ADS-B
Fri 02:58:54 PM 38.5480 -82.8680 245° Southwest 437 503 36,000  Level FlightAware ADS-B
Fri 02:59:37 PM 38.5120 -82.9710 246° West 436 502 36,000  Level FlightAware ADS-B
Fri 03:00:00 PM 38.4930 -83.0220 245° Southwest 436 502 36,000  Level FlightAware ADS-B
Fri 03:01:05 PM 38.4390 -83.1730 245° Southwest 434 499 36,000  Level FlightAware ADS-B
Fri 03:01:49 PM 38.4020 -83.2760 245° Southwest 433 498 36,000  Level FlightAware ADS-B
Fri 03:02:39 PM 38.3610 -83.3900 245° Southwest 431 496 36,000  Level FlightAware ADS-B
Fri 03:03:28 PM 38.3220 -83.4930 244° Southwest 431 496 36,000  Level FlightAware ADS-B
Fri 03:04:10 PM 38.2850 -83.5980 246° West 429 494 36,000  Level FlightAware ADS-B
Fri 03:05:08 PM 38.2410 -83.7150 244° Southwest 429 494 36,000  Level FlightAware ADS-B
Fri 03:05:49 PM 38.2001 -83.8285 245° Southwest 429 494 36,000  Level FlightAware ADS-B
Fri 03:06:23 PM 38.1720 -83.9050 245° Southwest 428 493 36,000  Level FlightAware ADS-B
Fri 03:07:16 PM 38.1267 -84.0260 245° Southwest 429 494 36,000  Level FlightAware ADS-B
Fri 03:07:47 PM 38.1006 -84.0962 245° Southwest 428 493 36,000  Level FlightAware ADS-B
Fri 03:08:20 PM 38.0732 -84.1702 245° Southwest 428 493 36,000  Level FlightAware ADS-B
Fri 03:09:08 PM 38.0327 -84.2789 245° Southwest 427 491 36,000  Level FlightAware ADS-B
Fri 03:09:56 PM 37.9923 -84.3866 245° Southwest 426 490 36,000  Level FlightAware ADS-B
Fri 03:10:26 PM 37.9666 -84.4548 244° Southwest 423 487 36,000  Level FlightAware ADS-B
Fri 03:10:58 PM 37.9400 -84.5251 244° Southwest 423 487 36,000  Level FlightAware ADS-B
Fri 03:11:28 PM 37.9141 -84.5934 244° Southwest 422 486 36,000  Level FlightAware ADS-B
Fri 03:11:59 PM 37.8885 -84.6609 244° Southwest 422 486 36,000  Level FlightAware ADS-B
Fri 03:12:29 PM 37.8632 -84.7284 245° Southwest 420 483 36,000  Level FlightAware ADS-B
Fri 03:13:04 PM 37.8341 -84.8053 244° Southwest 419 482 36,000  Level FlightAware ADS-B
Fri 03:13:39 PM 37.8048 -84.8823 244° Southwest 417 480 36,000  Level FlightAware ADS-B
Fri 03:14:11 PM 37.7782 -84.9518 244° Southwest 415 478 36,000  Level FlightAware ADS-B
Fri 03:14:41 PM 37.7528 -85.0175 244° Southwest 412 474 36,000  Level FlightAware ADS-B
Fri 03:15:12 PM 37.7276 -85.0829 244° Southwest 411 473 36,000  Level FlightAware ADS-B
Fri 03:15:43 PM 37.7021 -85.1491 244° Southwest 410 472 36,000  Level FlightAware ADS-B
Fri 03:16:13 PM 37.6767 -85.2155 244° Southwest 412 474 36,000  Level FlightAware ADS-B
Fri 03:16:45 PM 37.6504 -85.2835 244° Southwest 415 478 36,000  Level FlightAware ADS-B
Fri 03:17:24 PM 37.6174 -85.3684 244° Southwest 415 478 36,000  Level FlightAware ADS-B
Fri 03:18:14 PM 37.5756 -85.4763 244° Southwest 414 476 36,000  Level FlightAware ADS-B
Fri 03:18:53 PM 37.5429 -85.5605 244° Southwest 413 475 36,000  Level FlightAware ADS-B
Fri 03:19:25 PM 37.5159 -85.6294 244° Southwest 412 474 36,000  Level FlightAware ADS-B
Fri 03:19:57 PM 37.4890 -85.6983 244° Southwest 412 474 36,000  Level FlightAware ADS-B
Fri 03:20:28 PM 37.4629 -85.7650 244° Southwest 413 475 36,000  Level FlightAware ADS-B
Fri 03:20:58 PM 37.4374 -85.8297 244° Southwest 415 478 36,000  Level FlightAware ADS-B
Fri 03:21:28 PM 37.4114 -85.8956 244° Southwest 418 481 36,000  Level FlightAware ADS-B
Fri 03:21:59 PM 37.3851 -85.9620 244° Southwest 417 480 36,000  Level FlightAware ADS-B
Fri 03:22:33 PM 37.3560 -86.0357 244° Southwest 417 480 36,000  Level FlightAware ADS-B
Fri 03:23:30 PM 37.3067 -86.1597 243° Southwest 415 478 36,000  Level FlightAware ADS-B
Fri 03:24:13 PM 37.2700 -86.2520 243° Southwest 415 478 36,000  Level FlightAware ADS-B
Fri 03:24:53 PM 37.2360 -86.3370 243° Southwest 414 476 36,000  Level FlightAware ADS-B
Fri 03:26:15 PM 37.1880 -86.4580 244° Southwest 415 478 36,000  Level FlightAware ADS-B
Fri 03:27:03 PM 37.1240 -86.6170 243° Southwest 414 476 36,000  Level FlightAware ADS-B
Fri 03:27:42 PM 37.0910 -86.6970 243° Southwest 413 475 36,000  Level FlightAware ADS-B
Fri 03:28:24 PM 37.0550 -86.7880 244° Southwest 411 473 36,000  Level FlightAware ADS-B
Fri 03:28:45 PM 37.0363 -86.8330 243° Southwest 412 474 36,000  Level FlightAware ADS-B
Fri 03:29:17 PM 37.0083 -86.9017 243° Southwest 410 472 36,000  Level FlightAware ADS-B
Fri 03:29:48 PM 36.9820 -86.9650 243° Southwest 410 472 36,000  Level FlightAware ADS-B
Fri 03:30:25 PM 36.9500 -87.0450 243° Southwest 411 473 36,000  Level FlightAware ADS-B
Fri 03:31:14 PM 36.9080 -87.1470 243° Southwest 413 475 36,000  Level FlightAware ADS-B
Fri 03:31:57 PM 36.8700 -87.2390 243° Southwest 414 476 36,000  Level FlightAware ADS-B
Fri 03:32:34 PM 36.8390 -87.3150 243° Southwest 415 478 36,000  Level FlightAware ADS-B
Fri 03:33:17 PM 36.8000 -87.4090 243° Southwest 416 479 36,000  Level FlightAware ADS-B
Fri 03:33:46 PM 36.7750 -87.4690 243° Southwest 417 480 36,000  Level FlightAware ADS-B
Fri 03:34:23 PM 36.7420 -87.5490 243° Southwest 418 481 36,000  Level FlightAware ADS-B
Fri 03:35:05 PM 36.7050 -87.6390 243° Southwest 418 481 36,000  Level FlightAware ADS-B
Fri 03:35:51 PM 36.6630 -87.7390 242° Southwest 419 482 36,000  Level FlightAware ADS-B
Fri 03:36:35 PM 36.6240 -87.8320 242° Southwest 419 482 36,000  Level FlightAware ADS-B
Fri 03:37:12 PM 36.5920 -87.9090 243° Southwest 420 483 36,000  Level FlightAware ADS-B
Fri 03:37:59 PM 36.5490 -88.0110 242° Southwest 420 483 36,000  Level FlightAware ADS-B
Fri 03:38:39 PM 36.5130 -88.0970 243° Southwest 420 483 36,000  Level FlightAware ADS-B
Fri 03:39:23 PM 36.4730 -88.1900 242° Southwest 420 483 36,000  Level FlightAware ADS-B
Fri 03:40:07 PM 36.4340 -88.2830 242° Southwest 417 480 36,000  Level FlightAware ADS-B
Fri 03:41:01 PM 36.4140 -88.3310 243° Southwest 416 479 36,000  Level FlightAware ADS-B
Fri 03:41:41 PM 36.3830 -88.4020 242° Southwest 416 479 36,000  Level FlightAware ADS-B
Fri 03:42:27 PM 36.3480 -88.4850 242° Southwest 416 479 36,000  Level FlightAware ADS-B
Fri 03:43:03 PM 36.3200 -88.5490 242° Southwest 416 479 36,000  Level FlightAware ADS-B
Fri 03:43:51 PM 36.2830 -88.6350 242° Southwest 416 479 36,000  Level FlightAware ADS-B
Fri 03:44:27 PM 36.2550 -88.7000 242° Southwest 416 479 36,000  Level FlightAware ADS-B
Fri 03:45:13 PM 36.2200 -88.7820 242° Southwest 416 479 36,000  Level FlightAware ADS-B
Fri 03:45:51 PM 36.1910 -88.8500 242° Southwest 416 479 36,000  Level FlightAware ADS-B
Fri 03:46:38 PM 36.1550 -88.9340 242° Southwest 416 479 36,000  Level FlightAware ADS-B
Fri 03:47:16 PM 36.1260 -89.0020 242° Southwest 416 479 36,000  Level FlightAware ADS-B
Fri 03:48:04 PM 36.0890 -89.0880 242° Southwest 416 479 36,000  Level FlightAware ADS-B
Fri 03:48:39 PM 36.0620 -89.1510 242° Southwest 416 479 36,000  Level FlightAware ADS-B
Fri 03:49:25 PM 36.0260 -89.2330 242° Southwest 416 479 36,000  Level FlightAware ADS-B
Fri 03:49:52 PM 36.0060 -89.2810 243° Southwest 416 479 36,000 444 Level FlightAware ADS-B
Fri 03:53:55 PM 35.6820 -90.0070 241° Southwest 403 464 38,000 399 Climbing FlightAware ADS-B
Fri 03:54:53 PM 35.6370 -90.1080 241° Southwest 403 464 38,000  Level FlightAware ADS-B
Fri 03:55:43 PM 35.5980 -90.1930 241° Southwest 403 464 38,000  Level FlightAware ADS-B
Fri 03:56:18 PM 35.5710 -90.2530 241° Southwest 403 464 38,000  Level FlightAware ADS-B
Fri 03:57:05 PM 35.5350 -90.3330 241° Southwest 403 464 38,000  Level FlightAware ADS-B
Fri 03:57:42 PM 35.5070 -90.3960 241° Southwest 403 464 38,000  Level FlightAware ADS-B
Fri 03:58:30 PM 35.4700 -90.4780 241° Southwest 403 464 38,000  Level FlightAware ADS-B
Fri 03:59:06 PM 35.4420 -90.5390 241° Southwest 403 464 38,000  Level FlightAware ADS-B
Fri 03:59:51 PM 35.4080 -90.6150 241° Southwest 403 464 38,000  Level FlightAware ADS-B
Fri 04:00:39 PM 35.3710 -90.6970 241° Southwest 403 464 38,000  Level FlightAware ADS-B
Fri 04:01:17 PM 35.3410 -90.7620 241° Southwest 403 464 38,000  Level FlightAware ADS-B
Fri 04:01:52 PM 35.3150 -90.8210 242° Southwest 403 464 38,000  Level FlightAware ADS-B
Fri 04:02:40 PM 35.2780 -90.9030 241° Southwest 403 464 38,000  Level FlightAware ADS-B
Fri 04:03:17 PM 35.2490 -90.9650 240° Southwest 403 464 38,000  Level FlightAware ADS-B
Fri 04:03:44 PM 35.1678 -91.1394 240° Southwest 397 457 38,000  Level Memphis Center
Fri 04:04:44 PM 35.1106 -91.2683 242° Southwest 397 457 38,000  Level Memphis Center
Fri 04:05:44 PM 35.0594 -91.3819 241° Southwest 388 447 38,000  Level Memphis Center
Fri 04:06:44 PM 35.0231 -91.4831 246° West 381 438 38,000  Level Memphis Center
Fri 04:07:44 PM 34.9844 -91.6067 249° West 381 438 38,000  Level Memphis Center
Fri 04:08:44 PM 34.9436 -91.7250 247° West 381 438 38,000  Level Memphis Center
Fri 04:09:44 PM 34.9006 -91.8458 247° West 381 438 38,000  Level Memphis Center
Fri 04:10:44 PM 34.8614 -91.9667 248° West 387 445 38,000  Level Memphis Center
Fri 04:11:44 PM 34.8181 -92.0925 247° West 392 451 38,000  Level Memphis Center
Fri 04:17:43 PM 34.5570 -92.8470 247° West 397 457 38,000  Level FlightAware ADS-B
Fri 04:18:26 PM 34.5310 -92.9220 247° West 397 457 38,000  Level FlightAware ADS-B
Fri 04:20:32 PM 34.4400 -93.1800 247° West 392 451 38,000  Level FlightAware ADS-B
Fri 04:21:27 PM 34.3970 -93.3020 247° West 394 453 38,000  Level FlightAware ADS-B
Fri 04:22:13 PM 34.3690 -93.3800 247° West 394 453 38,000  Level FlightAware ADS-B
Fri 04:23:16 PM 34.3190 -93.5230 247° West 397 457 38,000  Level FlightAware ADS-B
Fri 04:24:02 PM 34.2940 -93.6110 251° West 396 456 38,000  Level FlightAware ADS-B
Fri 04:28:15 PM 34.1470 -94.1410 252° West 395 455 38,000  Level FlightAware ADS-B
Fri 04:28:55 PM 34.1270 -94.2120 251° West 395 455 38,000  Level FlightAware ADS-B
Fri 04:29:32 PM 34.1080 -94.2780 251° West 395 455 38,000  Level FlightAware ADS-B
Fri 04:30:38 PM 34.0740 -94.3950 251° West 395 455 38,000  Level FlightAware ADS-B
Fri 04:31:14 PM 34.0560 -94.4590 251° West 395 455 38,000  Level FlightAware ADS-B
Fri 04:32:02 PM 34.0320 -94.5440 251° West 395 455 38,000  Level FlightAware ADS-B
Fri 04:32:38 PM 34.0140 -94.6080 251° West 395 455 38,000  Level FlightAware ADS-B
Fri 04:33:21 PM 33.9690 -94.7590 250° West 379 436 38,000 -202 Level FlightAware ADS-B
Fri 04:34:07 PM 33.9360 -94.8540 247° West 382 440 37,700 -907 Descending FlightAware ADS-B
Fri 04:34:47 PM 33.9100 -94.9320 248° West 391 450 36,700 -2,122 Descending FlightAware ADS-B
Fri 04:35:29 PM 33.8810 -95.0170 248° West 395 455 34,800 -2,372 Descending FlightAware ADS-B
Fri 04:36:13 PM 33.8500 -95.1080 248° West 408 470 33,300 -1,463 Descending FlightAware ADS-B
Fri 04:36:51 PM 33.8230 -95.1870 248° West 426 490 32,800 -1,537 Descending FlightAware ADS-B
Fri 04:37:35 PM 33.7890 -95.2860 248° West 430 495 31,200 -2,707 Descending FlightAware ADS-B
Fri 04:38:13 PM 33.7600 -95.3710 248° West 436 502 29,100 -3,103 Descending FlightAware ADS-B
Fri 04:39:02 PM 33.7210 -95.4830 247° West 453 521 26,700 -2,800 Descending FlightAware ADS-B
Fri 04:39:43 PM 33.6880 -95.5790 248° West 460 529 24,900 -2,722 Descending FlightAware ADS-B
Fri 04:40:39 PM 33.6440 -95.7070 248° West 422 486 22,300 -2,571 Descending FlightAware ADS-B
Fri 04:41:21 PM 33.6130 -95.7950 247° West 394 453 20,700 -2,268 Descending FlightAware ADS-B
Fri 04:42:01 PM 33.5840 -95.8760 247° West 413 475 19,200 -2,357 Descending FlightAware ADS-B
Fri 04:42:45 PM 33.5510 -95.9700 247° West 417 480 17,400 -2,523 Descending FlightAware ADS-B
Fri 04:43:29 PM 33.5190 -96.0630 248° West 400 460 15,500 -2,500 Descending FlightAware ADS-B
Fri 04:44:09 PM 33.4910 -96.1420 247° West 385 443 13,900 -2,400 Descending FlightAware ADS-B
Fri 04:44:49 PM 33.4630 -96.2190 246° West 375 432 12,300 -2,250 Descending FlightAware ADS-B
Fri 04:45:13 PM 33.4470 -96.2650 247° West 368 423 11,500 -1,100 Descending FlightAware ADS-B
Fri 04:45:49 PM 33.4240 -96.3290 247° West 334 384 11,200 -643 Descending FlightAware ADS-B
Fri 04:46:37 PM 33.3940 -96.4040 244° Southwest 303 349 10,600 -835 Descending FlightAware ADS-B
Fri 04:47:08 PM 33.3660 -96.4390 226° Southwest 290 334 10,100 -982 Descending FlightAware ADS-B
Fri 04:47:32 PM 33.3420 -96.4670 224° Southwest 285 328 9,700 -1,019 Descending FlightAware ADS-B
Fri 04:48:01 PM 33.3160 -96.5000 227° Southwest 285 328 9,200 -1,395 Descending FlightAware ADS-B
Fri 04:48:15 PM 33.3090 -96.5220 249° West 289 333 8,700 -1,610 Descending FlightAware ADS-B
Fri 04:48:42 PM 33.3010 -96.5610 256° West 286 329 8,100 -1,385 Descending FlightAware ADS-B
Fri 04:48:54 PM 33.2980 -96.5810 260° West 285 328 7,800 -1,467 Descending FlightAware ADS-B
Fri 04:49:27 PM 33.2880 -96.6320 257° West 282 325 7,000 -1,368 Descending FlightAware ADS-B
Fri 04:49:51 PM 33.2810 -96.6670 257° West 279 321 6,500 -1,358 Descending FlightAware ADS-B
Fri 04:50:20 PM 33.2730 -96.7110 258° West 275 316 5,800 -1,459 Descending FlightAware ADS-B
Fri 04:50:28 PM 33.2710 -96.7230 259° West 276 318 5,600 -1,333 Descending FlightAware ADS-B
Fri 04:51:05 PM 33.2610 -96.7790 258° West 277 319 4,800 -941 Descending FlightAware ADS-B
Fri 04:51:19 PM 33.2570 -96.8000 257° West 276 318 4,800  Level FlightAware ADS-B
Fri 04:51:49 PM 33.2490 -96.8430 257° West 273 314 4,800  Level FlightAware ADS-B
Fri 04:52:11 PM 33.2430 -96.8760 258° West 272 313 4,800  Level FlightAware ADS-B
Fri 04:52:41 PM 33.2310 -96.9190 252° West 272 313 4,800  Level FlightAware ADS-B
Fri 04:52:57 PM 33.2240 -96.9400 248° West 256 295 4,800  Level FlightAware ADS-B
Fri 04:53:24 PM 33.2130 -96.9730 248° West 236 272 4,800  Level FlightAware ADS-B
Fri 04:53:40 PM 33.2000 -96.9880 224° Southwest 225 259 4,800  Level FlightAware ADS-B
Fri 04:54:09 PM 33.1740 -97.0050 209° Southwest 221 254 4,800 109 Level FlightAware ADS-B
Fri 04:54:35 PM 33.1490 -97.0090 188° South 217 250 4,900 -295 Climbing FlightAware ADS-B
Fri 04:55:10 PM 33.1160 -97.0090 180° South 194 223 4,500 -881 Descending FlightAware ADS-B
Fri 04:56:24 PM 33.0510 -97.0090 180° South 184 212 3,300 -1,000 Descending FlightAware ADS-B
Fri 04:56:52 PM 33.0280 -97.0090 180° South 186 214 2,800 -960 Descending FlightAware ADS-B
Fri 04:57:39 PM 32.9880 -97.0090 180° South 169 194 2,100 -882 Descending FlightAware ADS-B
Fri 04:58:00 PM 32.9720 -97.0090 180° South 158 182 1,800 -792 Descending FlightAware ADS-B
Fri 04:58:32 PM 32.9500 -97.0090 180° South 150 173 1,400 -484 Descending FlightAware ADS-B
Fri 04:59:02 PM 32.9320 -97.0090 180° South 151 174 1,300 -200 Descending FlightAware ADS-B

Login

Don't have an account? Register now (free) for customized features, flight alerts, and more!